Terminal Aerodrome Forecast
Issued by NWS

Home | Current Version | Previous Version | Text Only | Print | Product List | Glossary Off
Versions: 1 2 3 4 5 6 7 8 9 10 11 12 13 14 15 16

000
FTUS43 KGRB 141136
TAFAUW
TAF
KAUW 141136Z 1412/1512 04005KT P6SM SCT200
     FM141400 08009KT P6SM SCT035 BKN100
     FM141800 08011G17KT P6SM -RA OVC035
     FM142000 09011G17KT P6SM -RA OVC020
     FM142200 09012G19KT 4SM RA OVC012
     FM150000 07012G19KT 2SM RA BR OVC005
     FM150600 36010G18KT 3SM RA OVC004=

USA.gov is the U.S. government's official web portal to all federal, state and local government web resources and services.